This is the latest recevied weather packets stored in our database for station/object N1MCJ. If no packets are shown the sender has not sent any weather packets the latest 1 day(s).
| Time | Temp. | Humidity | Pressure | Rain* | Wind** | Luminosity | Snow |
|---|---|---|---|---|---|---|---|
| 1778107106 | 13.89° C | 99% | 998.7 hPa | 0 mm | - | 2 W/m² | - |
| 1778106206 | 13.89° C | 99% | 998.4 hPa | 0 mm | - | 5 W/m² | - |
| 1778105305 | 13.89° C | 99% | 998.5 hPa | 0 mm | - | 7 W/m² | - |
| 1778104404 | 13.89° C | 99% | 998.4 hPa | 0 mm | - | 7 W/m² | - |
| 1778099886 | 14.44° C | 99% | 998.4 hPa | 0 mm | - | 16 W/m² | - |
| 1778097174 | 14.44° C | 98% | 998.8 hPa | 0 mm | - | 16 W/m² | - |
| 1778093559 | 14.44° C | 98% | 999.5 hPa | 0 mm | - | 80 W/m² | - |
| 1778092656 | 14.44° C | 98% | 999.7 hPa | 0 mm | - | 85 W/m² | - |
| 1778091756 | 13.89° C | 98% | 999.9 hPa | 1.78 mm | - | 55 W/m² | - |
| 1778089953 | 13.89° C | 97% | 1000 hPa | 0 mm | - | 21 W/m² | - |
| 1778084534 | 16.11° C | 85% | 1001.2 hPa | 0 mm | - | 46 W/m² | - |
| 1778083632 | 16.11° C | 83% | 1001.4 hPa | 0 mm | - | 72 W/m² | - |
| 1778078883 | 16.11° C | 83% | 1001.5 hPa | 0 mm | - | 60 W/m² | - |
| 1778077980 | 16.67° C | 82% | 1001.5 hPa | 0 mm | - | 76 W/m² | - |
| 1778072563 | 16.11° C | 85% | 1001.3 hPa | 0 mm | - | 60 W/m² | - |
| 1778068056 | 15° C | 89% | 1001.7 hPa | 0 mm | - | 28 W/m² | - |
| 1778067154 | 14.44° C | 91% | 1001.6 hPa | 0 mm | - | 28 W/m² | - |
| 1778061740 | 12.78° C | 96% | 1001.7 hPa | 0 mm | - | 2 W/m² | - |
| 1778060837 | 12.78° C | 96% | 1001.5 hPa | 0 mm | - | 0 W/m² | - |
| 1778059936 | 12.78° C | 95% | 1001.5 hPa | 0 mm | - | 0 W/m² | - |
| 1778059035 | 12.78° C | 95% | 1001.5 hPa | 0 mm | - | 0 W/m² | - |
| 1778058132 | 12.78° C | 94% | 1001.6 hPa | 0 mm | - | 0 W/m² | - |
| 1778057228 | 12.78° C | 94% | 1001.7 hPa | 0 mm | - | 0 W/m² | - |
| 1778056325 | 13.33° C | 93% | 1001.7 hPa | 0 mm | - | 0 W/m² | - |
| 1778053616 | 13.33° C | 92% | 1001.9 hPa | 0 mm | - | 0 W/m² | - |
* Rain latest hour (hover to see other rain measurements)
** Current wind speed in m/s (hover to see current wind gust speed)